Hauptseite
METAR-TAF:

METAR-TAF

Flughäfen :

Flughafen Cherbourg-Maupertus

Cherbourg, Frankreich

Breite: 49-39N, Länge: 001-28W, Höhe: 138 m

Beobachtung

Neuester Wetterbericht von vor 5 Stunden und 24 Minuten, um 08:30 UTC
Wind 9 kt aus Südwest, variierte zwischen Süd und West
Temperatur 19°C
Luftfeuchtigkeit 60%
Luftdruck 1017 hPa
Sichtweite 10 km oder mehr
keine Wolken unter 1500 m und keine Kumulonimbus oder Gewitterwolken

METAR: LFRC 230830Z AUTO 22009KT 180V260 CAVOK 19/11 Q1017 NOSIG

Zeit: 15:54 (13:54 UTC)

Prognose

Neuester Wetterbericht von vor 2 Stunden und 54 Minuten, um 11:00 UTC
Gültige Prognose vom 23 um 12 UTC bis 23 um 21 UTC
Wind 8 kt aus West/Südwest
Sichtweite 10 km oder mehr
keine Wolken unter 1500 m und keine Kumulonimbus oder Gewitterwolken
Übergehend zu
vom 23 um 12 UTC bis 23 um 14 UTC
Wind 10 kt aus West/Nordwest

TAF: LFRC 231100Z 2312/2321 24008KT CAVOK BECMG 2312/2314 30010KT

Wetterbeobachtungen und Prognosen von mehr als 4000 Flughäfen (METAR und TAF Bericht).

Die verfügbaren Stationen werden durch gelbe und rote Markierungen auf der Karte dargestellt.

Führen Sie die Maus auf sie, um den Namen der Station zu sehen.

Darauf klicken, um die Beobachtung von Wetterbeobachtungen und Prognosen zu sehen.

Um die Karte zu ändern : klicken Sie auf den grünen Tasten mit einem schwarzen Kreuz Zum Vergrößern, auf den grünen Button mit einem Gedankenstrich zu verkleinern, oder auf die grünen Pfeile für benachbarte Karten.


METAR-TAF: